Hobart, OK (73651)

1:10 PM CDT on September 01, 2015 (GMT -0500)
Hobart OK | | Change Station
CLOSE
Current Station
Personal Weather Station
Location: Hobart, OK
Elevation: 1572 ft
Nearby Weather Stations

Elev 1572 ft 35.03 °N, 99.10 °W | Updated 1 minute ago

Clear
Clear
94.5 °F
Feels Like 99 °F
N
8.3
Wind Variable Wind from South

Today
High -- | Low -- °F
--% Chance of Precip.
Yesterday
High -- | Low -- °F
Precip. -- in
7:08 AM 8:03 PM
Waning Gibbous, 87% visible
Pressure 29.95 in
Visibility 10.0 miles
Clouds Clear
Heat Index 99 °F
Dew Point 67 °F
Humidity 41%
Rainfall 0.00 in
Snow Depth Not available.
UV 10 out of 12
Pollen 9.60 out of 12
Air Quality Not available.
Flu Activity Not available.
METAR KHBR 011753Z AUTO 19012KT 10SM CLR 34/18 A3002 RMK AO2 SLP142 T03390178 10339 20217 58003
Pressure 29.95 in
Visibility 10.0 miles
Clouds Clear
Heat Index 99 °F
Dew Point 67 °F
Humidity 41%
Rainfall 0.00 in
Snow Depth Not available.
UV 10 out of 12
Pollen 9.60 out of 12
Air Quality Not available.
Flu Activity Not available.
METAR KHBR 011753Z AUTO 19012KT 10SM CLR 34/18 A3002 RMK AO2 SLP142 T03390178 10339 20217 58003

10-Day Weather Forecast

×

Almanac

Astronomy

Sep. 01, 2015 Rise Set
Actual Time
Civil Twilight
Nautical Twilight
Astronomical Twilight
Moon
Length of Visible Light
Length of Day
Tomorrow will be .
, % of the Moon is Illuminated

Today's Extremes

State Highs State Lows

Community

WunderPhotos

Upload Photos

1,851,592 photos uploaded!

WunderBlogs® & News

Nearby

Air Quality

  Air Quality AQ Index Pollutant
Not available.

Snow Depth

Station Depth Elevation

Earthquake Activity

City Distance Mag. Time & Date
Minimum magnitude displayed is 2.5.

Coastal Water Temperatures

Place Temperature

Stations

Nearby Weather Stations

Station Location Temp. Windchill Dew Point Humidity Wind Precip. Elev Updated Type